HKMO

Mombasa Moi International Airport

Mombasa, Kenya
METAR HKMO 240100Z 23005KT 9999 FEW019 23/22 Q1014 NOSIG
Observed Flight Rules
May-24 @ 01:00 UTC (57 minutes ago) Visual Flight Rules
Wind Visibility Clouds
230° at 5 knots 10,000+ meters
  • Few at 1,900' AGL
Temperatures Readings
Current 23°C / 73°F
Dewpoint 22°C / 72°F
Humidity 94%
Altimeter 29.94" Hg
Pressure 1014 hPa
Elevation 55
METAR HKMO 240100Z 23005KT 9999 FEW019 23/22 Q1014 NOSIG
Observed Flight Rules
May-24 @ 01:00 UTC
(57 minutes ago)
VFR
Wind Visibility
230° at 5 knots 10,000+ meters
Clouds
  • Few at 1,900' AGL
Temperature Dewpoint
23°C / 73°F 22°C / 72°F
Humidity Altimeter Pressure
94% 29.94" Hg 1014 hPa